Time;durP1;ratioP1;P1;durP2;ratioP2;P2;SDS_P1;SDS_P2;PMS_P1;PMS_P2;Temp;Humidity;BMP_temperature;BMP_pressure;BME280_temperature;BME280_humidity;BME280_pressure;Samples;Min_cycle;Max_cycle;Signal;HPM_P1;HPM_P2
2023/01/04 00:01:15;;;;;;;15.05;7.32;;;;;;;;;;5028789;28;20088;-55
2023/01/04 00:03:41;;;;;;;13.55;7.05;;;;;;;;;;5027857;28;20032;-54
2023/01/04 00:06:07;;;;;;;15.60;7.78;;;;;;;;;;5051466;23;20069;-65
2023/01/04 00:08:33;;;;;;;14.73;7.35;;;;;;;;;;5049630;28;20036;-65
2023/01/04 00:11:03;;;;;;;17.02;7.40;;;;;;;;;;5050498;28;20394;-66
2023/01/04 00:13:30;;;;;;;14.23;6.97;;;;;;;;;;5049729;28;20583;-63
2023/01/04 00:15:56;;;;;;;15.48;8.00;;;;;;;;;;5052282;28;20032;-65
2023/01/04 00:18:22;;;;;;;17.27;7.60;;;;;;;;;;5069149;28;20477;-66
2023/01/04 00:20:48;;;;;;;17.25;7.22;;;;;;;;;;5070520;28;20028;-66
2023/01/04 00:23:14;;;;;;;15.18;7.70;;;;;;;;;;5069694;28;20029;-66
2023/01/04 00:25:40;;;;;;;15.32;7.45;;;;;;;;;;5069982;28;20082;-65
2023/01/04 00:28:06;;;;;;;17.45;7.20;;;;;;;;;;5071098;28;20027;-66
2023/01/04 00:30:32;;;;;;;13.63;7.07;;;;;;;;;;5070869;28;20039;-65
2023/01/04 00:32:58;;;;;;;16.13;7.50;;;;;;;;;;5070871;28;20038;-63
2023/01/04 00:35:24;;;;;;;18.50;7.82;;;;;;;;;;5070452;28;20021;-66
2023/01/04 00:37:50;;;;;;;13.55;7.20;;;;;;;;;;5069384;28;20507;-65
2023/01/04 00:40:16;;;;;;;14.18;7.65;;;;;;;;;;5070892;28;20107;-65
2023/01/04 00:42:42;;;;;;;16.05;7.70;;;;;;;;;;5070774;28;20055;-64
2023/01/04 00:45:09;;;;;;;29.60;9.93;;;;;;;;;;5068323;28;20067;-65
2023/01/04 00:47:35;;;;;;;17.83;7.40;;;;;;;;;;5070703;28;20449;-66
2023/01/04 00:50:02;;;;;;;16.52;7.13;;;;;;;;;;5068952;28;20486;-64
2023/01/04 00:52:28;;;;;;;14.73;6.88;;;;;;;;;;5069380;28;20024;-65
2023/01/04 00:54:54;;;;;;;16.60;7.00;;;;;;;;;;5069831;28;20031;-63
2023/01/04 00:57:20;;;;;;;14.80;7.05;;;;;;;;;;5070749;28;20032;-65
2023/01/04 00:59:46;;;;;;;17.08;7.38;;;;;;;;;;5069293;28;20097;-64
2023/01/04 01:02:12;;;;;;;14.18;6.50;;;;;;;;;;5070779;28;20419;-65
2023/01/04 01:04:38;;;;;;;16.58;6.82;;;;;;;;;;5070308;28;20477;-65
2023/01/04 01:07:04;;;;;;;16.23;7.22;;;;;;;;;;5070233;28;20174;-65
2023/01/04 01:09:30;;;;;;;14.63;7.00;;;;;;;;;;5070321;28;20158;-62
2023/01/04 01:11:56;;;;;;;13.63;6.85;;;;;;;;;;5070586;28;20021;-65
2023/01/04 01:14:24;;;;;;;14.57;6.90;;;;;;;;;;5068982;28;20515;-64
2023/01/04 01:16:50;;;;;;;14.50;7.13;;;;;;;;;;5070369;28;20495;-64
2023/01/04 01:19:16;;;;;;;18.05;7.43;;;;;;;;;;5070508;28;20038;-63
2023/01/04 01:21:42;;;;;;;15.98;7.32;;;;;;;;;;5070641;28;20103;-64
2023/01/04 01:24:14;;;;;;;13.68;7.00;;;;;;;;;;5068762;28;20031;-63
2023/01/04 01:26:40;;;;;;;16.15;8.07;;;;;;;;;;5070521;28;20476;-66
2023/01/04 01:29:06;;;;;;;18.10;9.07;;;;;;;;;;5069228;28;20032;-64
2023/01/04 01:31:32;;;;;;;14.00;7.30;;;;;;;;;;5070736;28;20094;-65
2023/01/04 01:34:00;;;;;;;18.75;7.63;;;;;;;;;;5069548;28;20100;-65
2023/01/04 01:36:27;;;;;;;15.85;7.38;;;;;;;;;;5069169;28;20021;-64
2023/01/04 01:38:53;;;;;;;14.93;7.68;;;;;;;;;;5070523;28;20032;-65
2023/01/04 01:41:26;;;;;;;15.95;7.88;;;;;;;;;;5070215;28;20078;-64
2023/01/04 01:43:52;;;;;;;16.17;8.43;;;;;;;;;;5069594;28;20066;-64
2023/01/04 01:46:23;;;;;;;15.45;8.63;;;;;;;;;;5070226;28;20423;-64
2023/01/04 01:48:50;;;;;;;15.32;8.20;;;;;;;;;;5070214;28;20028;-65
2023/01/04 01:51:17;;;;;;;15.27;9.02;;;;;;;;;;5069184;28;20115;-64
2023/01/04 01:53:45;;;;;;;16.27;10.23;;;;;;;;;;5068147;28;20021;-65
2023/01/04 01:56:11;;;;;;;15.38;9.38;;;;;;;;;;5069950;28;20017;-65
2023/01/04 01:58:41;;;;;;;16.65;9.60;;;;;;;;;;5069985;28;20029;-65
2023/01/04 02:01:08;;;;;;;18.05;10.65;;;;;;;;;;5069784;28;20442;-65
2023/01/04 02:03:40;;;;;;;16.77;10.85;;;;;;;;;;5068091;28;20119;-64
2023/01/04 02:06:08;;;;;;;17.23;11.20;;;;;;;;;;5069853;28;20468;-65
2023/01/04 02:08:35;;;;;;;16.60;11.35;;;;;;;;;;5068642;28;20035;-65
2023/01/04 02:11:02;;;;;;;16.63;13.15;;;;;;;;;;5068495;28;20476;-64
2023/01/04 02:14:25;;;;;;;20.25;16.25;;;;;;;;;;5069017;28;20111;-65
2023/01/04 02:16:34;;;;;;;22.30;20.13;;;;;;;;;;5069345;28;20431;-65
2023/01/04 02:19:19;;;;;;;24.90;22.70;;;;;;;;;;5069708;28;20190;-65
2023/01/04 02:21:45;;;;;;;33.60;30.55;;;;;;;;;;5069673;28;20030;-65
2023/01/04 02:24:24;;;;;;;39.20;36.10;;;;;;;;;;5068773;28;20040;-65
2023/01/04 02:26:53;;;;;;;36.92;33.95;;;;;;;;;;5072917;28;20044;-63
2023/01/04 02:29:38;;;;;;;38.13;35.05;;;;;;;;;;5073220;28;20032;-63
2023/01/04 02:32:22;;;;;;;42.10;38.90;;;;;;;;;;5073086;28;20031;-63
2023/01/04 02:34:54;;;;;;;43.25;39.88;;;;;;;;;;5072387;28;20151;-63
2023/01/04 02:37:20;;;;;;;42.65;39.75;;;;;;;;;;5071760;28;20023;-63
2023/01/04 02:39:49;;;;;;;44.08;40.97;;;;;;;;;;5072943;28;20028;-63
2023/01/04 02:44:51;;;;;;;44.95;41.65;;;;;;;;;;5072810;28;20029;-62
2023/01/04 02:45:17;;;;;;;43.75;40.50;;;;;;;;;;5072102;28;20404;-63
2023/01/04 02:50:30;;;;;;;42.30;38.95;;;;;;;;;;5072856;28;20035;-63
2023/01/04 02:53:05;;;;;;;39.67;36.63;;;;;;;;;;5072659;28;20042;-60
2023/01/04 02:55:55;;;;;;;39.10;36.13;;;;;;;;;;5071350;28;20024;-63
2023/01/04 02:58:26;;;;;;;36.72;33.88;;;;;;;;;;5064692;28;20029;-62
2023/01/04 03:06:43;;;;;;;31.67;29.08;;;;;;;;;;5072257;28;20055;-63
2023/01/04 03:09:14;;;;;;;32.03;29.25;;;;;;;;;;5072358;28;20024;-62
2023/01/04 03:15:00;;;;;;;31.73;28.92;;;;;;;;;;5071652;28;20039;-63
2023/01/04 03:17:27;;;;;;;31.08;28.27;;;;;;;;;;5064273;28;20116;-57
2023/01/04 03:19:55;;;;;;;30.02;27.60;;;;;;;;;;5072755;28;20480;-63
2023/01/04 03:36:26;;;;;;;28.67;26.13;;;;;;;;;;5071835;28;20094;-62
2023/01/04 03:50:52;;;;;;;27.40;25.00;;;;;;;;;;5071820;28;20036;-64
2023/01/04 03:53:20;;;;;;;27.70;25.27;;;;;;;;;;5071403;28;20071;-62
2023/01/04 03:55:46;;;;;;;29.98;27.05;;;;;;;;;;5071774;28;20077;-62
2023/01/04 03:58:13;;;;;;;29.75;27.02;;;;;;;;;;5071621;28;20090;-62
2023/01/04 04:00:39;;;;;;;31.40;28.83;;;;;;;;;;5071557;28;20079;-63
2023/01/04 04:03:11;;;;;;;31.95;29.40;;;;;;;;;;5069461;28;20370;-62
2023/01/04 04:08:29;;;;;;;34.40;31.45;;;;;;;;;;5071482;28;20059;-63
2023/01/04 04:13:44;;;;;;;36.13;33.50;;;;;;;;;;5070332;28;20115;-63
2023/01/04 04:16:10;;;;;;;40.65;37.25;;;;;;;;;;5070952;28;20048;-62
2023/01/04 04:18:36;;;;;;;39.42;36.60;;;;;;;;;;5071008;28;20364;-62
2023/01/04 04:21:02;;;;;;;42.10;38.55;;;;;;;;;;5071088;28;20035;-63
2023/01/04 04:23:28;;;;;;;39.70;36.80;;;;;;;;;;5070187;28;20028;-61
2023/01/04 04:25:54;;;;;;;38.92;36.13;;;;;;;;;;5071129;28;20031;-61
2023/01/04 04:28:20;;;;;;;40.55;37.42;;;;;;;;;;5070626;28;20016;-60
2023/01/04 04:30:49;;;;;;;42.22;39.33;;;;;;;;;;5070759;28;20032;-61
2023/01/04 04:33:15;;;;;;;40.60;37.60;;;;;;;;;;5070305;28;20017;-60
2023/01/04 04:35:41;;;;;;;40.33;37.40;;;;;;;;;;5070607;28;20036;-60
2023/01/04 04:38:07;;;;;;;39.28;36.38;;;;;;;;;;5069408;28;20024;-61
2023/01/04 04:43:18;;;;;;;37.80;34.80;;;;;;;;;;5069970;28;20754;-60
2023/01/04 04:45:44;;;;;;;36.38;33.50;;;;;;;;;;5070529;28;20047;-60
2023/01/04 04:48:10;;;;;;;36.20;33.30;;;;;;;;;;5070073;28;20393;-59
2023/01/04 04:50:36;;;;;;;36.10;33.35;;;;;;;;;;5070018;28;20028;-60
2023/01/04 04:53:02;;;;;;;34.88;32.13;;;;;;;;;;5068857;28;20025;-56
2023/01/04 04:55:28;;;;;;;34.38;31.70;;;;;;;;;;5070699;28;20016;-62
2023/01/04 04:57:54;;;;;;;32.47;29.98;;;;;;;;;;5068995;28;20459;-60
2023/01/04 05:00:20;;;;;;;33.60;30.35;;;;;;;;;;5069419;28;20030;-61
2023/01/04 05:02:46;;;;;;;30.90;28.50;;;;;;;;;;5070604;28;20028;-60
2023/01/04 05:05:12;;;;;;;30.58;28.13;;;;;;;;;;5069865;28;20120;-60
2023/01/04 05:07:38;;;;;;;29.83;27.38;;;;;;;;;;5069328;28;20497;-59
2023/01/04 05:10:04;;;;;;;30.25;27.75;;;;;;;;;;5070307;28;20101;-60
2023/01/04 05:15:14;;;;;;;30.00;27.35;;;;;;;;;;5069704;28;20082;-63
2023/01/04 05:17:40;;;;;;;30.73;28.13;;;;;;;;;;5070134;28;20448;-60
2023/01/04 05:20:07;;;;;;;28.88;26.48;;;;;;;;;;5070283;28;20081;-61
2023/01/04 05:22:33;;;;;;;29.70;27.40;;;;;;;;;;5070229;28;20492;-63
2023/01/04 05:24:59;;;;;;;30.80;28.30;;;;;;;;;;5068289;28;20024;-62
2023/01/04 05:27:25;;;;;;;31.90;28.92;;;;;;;;;;5068870;28;20096;-61
2023/01/04 05:32:35;;;;;;;32.30;29.65;;;;;;;;;;5070462;28;20050;-60
2023/01/04 05:35:01;;;;;;;32.22;29.65;;;;;;;;;;5068090;28;20472;-62
2023/01/04 05:37:27;;;;;;;34.55;31.83;;;;;;;;;;5070100;28;20027;-60
2023/01/04 05:39:53;;;;;;;34.70;32.10;;;;;;;;;;5070546;28;20479;-61
2023/01/04 05:42:26;;;;;;;35.30;32.38;;;;;;;;;;5070418;28;20036;-61
2023/01/04 05:44:53;;;;;;;37.00;34.15;;;;;;;;;;5069597;28;20127;-60
2023/01/04 05:47:19;;;;;;;36.83;34.05;;;;;;;;;;5069823;28;20652;-61
2023/01/04 05:49:44;;;;;;;38.72;35.72;;;;;;;;;;5069905;28;20062;-61
2023/01/04 05:52:10;;;;;;;36.20;33.30;;;;;;;;;;5069851;28;20365;-61
2023/01/04 05:54:36;;;;;;;37.72;34.50;;;;;;;;;;5069272;28;20029;-59
2023/01/04 05:57:02;;;;;;;37.83;34.83;;;;;;;;;;5070035;28;20035;-61
2023/01/04 05:59:28;;;;;;;36.78;33.80;;;;;;;;;;5069968;28;20021;-60
2023/01/04 06:01:54;;;;;;;38.13;35.20;;;;;;;;;;5073190;28;20396;-61
2023/01/04 06:04:20;;;;;;;39.38;36.45;;;;;;;;;;5072866;28;20036;-60
2023/01/04 06:06:46;;;;;;;38.63;35.72;;;;;;;;;;5086880;23;20034;-55
2023/01/04 06:09:14;;;;;;;38.78;35.88;;;;;;;;;;5034705;28;20401;-57
2023/01/04 06:11:40;;;;;;;40.53;37.30;;;;;;;;;;5034716;28;20037;-57
2023/01/04 06:14:06;;;;;;;40.15;37.15;;;;;;;;;;5033823;28;20112;-57
2023/01/04 06:16:32;;;;;;;39.45;36.35;;;;;;;;;;5034500;28;20112;-58
2023/01/04 06:18:58;;;;;;;39.28;36.17;;;;;;;;;;5033402;28;20025;-58
2023/01/04 06:21:24;;;;;;;38.92;35.85;;;;;;;;;;5033158;28;20140;-61
2023/01/04 06:23:50;;;;;;;39.17;36.22;;;;;;;;;;5032456;28;20030;-55
2023/01/04 06:26:16;;;;;;;38.13;35.25;;;;;;;;;;5033003;28;20063;-59
2023/01/04 06:28:42;;;;;;;37.40;34.55;;;;;;;;;;5034169;28;20060;-57
2023/01/04 06:31:09;;;;;;;38.67;35.53;;;;;;;;;;5033427;28;20032;-57
2023/01/04 06:33:36;;;;;;;37.80;34.88;;;;;;;;;;5033886;28;20026;-58
2023/01/04 06:36:02;;;;;;;38.60;35.50;;;;;;;;;;5034282;28;20053;-57
2023/01/04 06:38:28;;;;;;;37.78;34.83;;;;;;;;;;5033000;28;20045;-54
2023/01/04 06:40:54;;;;;;;38.97;35.70;;;;;;;;;;5034160;28;20386;-56
2023/01/04 06:43:20;;;;;;;39.90;36.80;;;;;;;;;;5032235;28;20028;-58
2023/01/04 06:45:46;;;;;;;38.25;35.35;;;;;;;;;;5030938;28;20022;-58
2023/01/04 06:48:12;;;;;;;39.08;36.08;;;;;;;;;;5032424;28;20378;-57
2023/01/04 06:50:38;;;;;;;39.53;36.35;;;;;;;;;;5033895;28;20363;-58
2023/01/04 06:53:04;;;;;;;38.58;35.50;;;;;;;;;;5033527;28;20026;-60
2023/01/04 06:55:30;;;;;;;39.35;36.33;;;;;;;;;;5033976;28;20045;-59
2023/01/04 06:57:56;;;;;;;39.50;36.20;;;;;;;;;;5033788;28;20045;-59
2023/01/04 07:00:22;;;;;;;38.38;35.38;;;;;;;;;;5033856;28;20017;-59
2023/01/04 07:02:48;;;;;;;39.55;36.53;;;;;;;;;;5032499;28;20197;-59
2023/01/04 07:05:14;;;;;;;40.22;37.05;;;;;;;;;;5031669;28;20120;-57
2023/01/04 07:07:40;;;;;;;39.58;36.47;;;;;;;;;;5032277;28;20408;-60
2023/01/04 07:10:06;;;;;;;39.20;36.15;;;;;;;;;;5033577;28;20025;-57
2023/01/04 07:12:32;;;;;;;39.70;36.70;;;;;;;;;;5031655;28;20025;-59
2023/01/04 07:14:58;;;;;;;40.80;37.40;;;;;;;;;;5032761;28;20033;-58
2023/01/04 07:17:24;;;;;;;40.45;37.35;;;;;;;;;;5033392;28;20031;-59
2023/01/04 07:19:50;;;;;;;39.42;36.35;;;;;;;;;;5033434;28;20029;-57
2023/01/04 07:22:16;;;;;;;40.63;37.53;;;;;;;;;;5033564;28;20076;-55
2023/01/04 07:24:42;;;;;;;40.65;37.55;;;;;;;;;;5032598;28;20374;-57
2023/01/04 07:27:12;;;;;;;41.22;38.13;;;;;;;;;;5029601;28;20017;-59
2023/01/04 07:29:38;;;;;;;46.22;42.72;;;;;;;;;;5032728;28;20033;-56
2023/01/04 07:32:04;;;;;;;49.90;46.10;;;;;;;;;;5033282;28;20029;-55
2023/01/04 07:34:30;;;;;;;46.85;43.30;;;;;;;;;;5032368;28;20327;-56
2023/01/04 07:36:56;;;;;;;51.22;47.30;;;;;;;;;;5032880;28;20029;-54
2023/01/04 07:39:22;;;;;;;48.25;44.65;;;;;;;;;;5032843;28;20021;-54
2023/01/04 07:41:49;;;;;;;46.15;42.67;;;;;;;;;;5031747;28;20497;-52
2023/01/04 07:44:17;;;;;;;46.10;42.78;;;;;;;;;;5030957;28;20397;-53
2023/01/04 07:46:43;;;;;;;44.67;41.17;;;;;;;;;;5032763;28;20029;-53
2023/01/04 07:49:13;;;;;;;42.60;39.40;;;;;;;;;;5031340;28;20079;-52
2023/01/04 07:51:39;;;;;;;42.28;39.20;;;;;;;;;;5032835;28;20017;-52
2023/01/04 07:54:05;;;;;;;40.03;37.05;;;;;;;;;;5030555;28;20027;-58
2023/01/04 07:56:31;;;;;;;43.63;40.33;;;;;;;;;;5031047;28;20151;-53
2023/01/04 07:58:58;;;;;;;42.88;39.72;;;;;;;;;;5031489;28;20052;-56
2023/01/04 08:01:24;;;;;;;41.15;38.05;;;;;;;;;;5030952;28;20112;-57
2023/01/04 08:03:51;;;;;;;40.38;37.28;;;;;;;;;;5030603;28;20034;-58
2023/01/04 08:06:17;;;;;;;39.90;36.88;;;;;;;;;;5032269;28;20025;-52
2023/01/04 08:08:43;;;;;;;39.78;36.72;;;;;;;;;;5032244;28;20490;-58
2023/01/04 08:11:13;;;;;;;37.72;34.83;;;;;;;;;;5032198;28;20485;-54
2023/01/04 08:13:39;;;;;;;35.83;33.13;;;;;;;;;;5031661;28;20025;-60
2023/01/04 08:16:06;;;;;;;33.63;30.83;;;;;;;;;;5032217;28;20018;-57
2023/01/04 08:18:32;;;;;;;33.00;30.40;;;;;;;;;;5030646;28;20055;-51
2023/01/04 08:21:01;;;;;;;31.10;28.60;;;;;;;;;;5031040;28;20026;-57
2023/01/04 08:23:27;;;;;;;31.38;28.90;;;;;;;;;;5031124;28;20061;-60
2023/01/04 08:25:53;;;;;;;29.38;27.08;;;;;;;;;;5030709;28;20102;-54
2023/01/04 08:28:19;;;;;;;29.95;27.38;;;;;;;;;;5031963;28;20537;-59
2023/01/04 08:30:46;;;;;;;34.58;31.85;;;;;;;;;;5031763;28;20057;-56
2023/01/04 08:33:13;;;;;;;40.83;37.92;;;;;;;;;;5029942;28;20107;-60
2023/01/04 08:35:39;;;;;;;40.83;37.92;;;;;;;;;;5032195;28;20032;-56
2023/01/04 08:38:05;;;;;;;41.92;39.03;;;;;;;;;;5030625;28;20018;-56
2023/01/04 08:40:31;;;;;;;43.80;40.80;;;;;;;;;;5032259;28;20033;-53
2023/01/04 08:42:57;;;;;;;44.35;41.25;;;;;;;;;;5031796;28;20029;-51
2023/01/04 08:45:23;;;;;;;44.72;41.40;;;;;;;;;;5031268;28;20486;-55
2023/01/04 08:47:49;;;;;;;45.95;42.67;;;;;;;;;;5031637;28;20083;-49
2023/01/04 08:50:15;;;;;;;45.55;42.15;;;;;;;;;;5030428;28;20458;-56
2023/01/04 08:52:42;;;;;;;45.95;42.45;;;;;;;;;;5030818;28;20308;-53
2023/01/04 08:55:08;;;;;;;46.78;43.35;;;;;;;;;;5031219;28;20041;-53
2023/01/04 08:57:35;;;;;;;46.67;43.38;;;;;;;;;;5030517;28;20064;-51
2023/01/04 09:00:01;;;;;;;48.13;44.72;;;;;;;;;;5031670;28;20024;-59
2023/01/04 09:02:27;;;;;;;45.88;42.67;;;;;;;;;;5030277;28;20489;-59
2023/01/04 09:04:58;;;;;;;46.03;42.75;;;;;;;;;;5042162;28;20144;-55
2023/01/04 09:07:24;;;;;;;45.17;41.88;;;;;;;;;;5050389;28;20033;-57
2023/01/04 09:09:50;;;;;;;44.78;41.67;;;;;;;;;;5050040;28;20036;-57
2023/01/04 09:12:16;;;;;;;44.10;41.05;;;;;;;;;;5051483;28;20481;-57
2023/01/04 09:14:42;;;;;;;44.67;41.55;;;;;;;;;;5050774;28;20022;-58
2023/01/04 09:17:08;;;;;;;49.63;45.90;;;;;;;;;;5051389;28;20025;-57
2023/01/04 09:19:34;;;;;;;47.83;44.40;;;;;;;;;;5051543;28;20029;-58
2023/01/04 09:22:00;;;;;;;51.42;47.63;;;;;;;;;;5051286;28;20155;-54
2023/01/04 09:24:26;;;;;;;49.00;45.50;;;;;;;;;;5049235;28;20479;-58
2023/01/04 09:26:52;;;;;;;47.72;44.33;;;;;;;;;;5042939;28;20021;-55
2023/01/04 09:29:18;;;;;;;48.88;45.28;;;;;;;;;;5031307;28;20508;-56
2023/01/04 09:31:44;;;;;;;47.45;44.15;;;;;;;;;;5031361;28;20466;-55
2023/01/04 09:34:11;;;;;;;41.97;38.78;;;;;;;;;;5028968;28;20113;-55
2023/01/04 09:36:37;;;;;;;38.92;36.03;;;;;;;;;;5034467;28;20485;-57
2023/01/04 09:39:03;;;;;;;44.67;40.83;;;;;;;;;;5034169;28;20049;-57
2023/01/04 09:41:33;;;;;;;44.78;41.58;;;;;;;;;;5034485;28;20124;-54
2023/01/04 09:44:09;;;;;;;42.75;39.58;;;;;;;;;;5033832;28;20559;-52
2023/01/04 09:46:54;;;;;;;43.22;40.03;;;;;;;;;;5035258;28;20045;-54
2023/01/04 09:49:24;;;;;;;39.47;36.42;;;;;;;;;;5034700;28;20083;-55
2023/01/04 09:52:11;;;;;;;36.15;33.53;;;;;;;;;;5035147;28;20028;-56
2023/01/04 09:54:55;;;;;;;36.60;33.90;;;;;;;;;;5034203;28;20032;-56
2023/01/04 09:57:24;;;;;;;39.28;36.38;;;;;;;;;;5033689;28;20099;-58
2023/01/04 09:59:56;;;;;;;40.78;37.88;;;;;;;;;;5033667;28;20029;-55
2023/01/04 10:02:30;;;;;;;42.58;39.15;;;;;;;;;;5033576;28;20524;-50
2023/01/04 10:04:58;;;;;;;40.03;37.05;;;;;;;;;;5032672;28;20037;-53
2023/01/04 10:07:28;;;;;;;39.78;36.88;;;;;;;;;;5033729;28;20037;-57
2023/01/04 10:09:54;;;;;;;41.65;38.47;;;;;;;;;;5033253;28;20053;-54
2023/01/04 10:12:23;;;;;;;42.63;39.13;;;;;;;;;;5033426;28;20393;-56
2023/01/04 10:15:08;;;;;;;48.72;43.70;;;;;;;;;;5034202;28;20049;-55
2023/01/04 10:17:49;;;;;;;47.10;43.80;;;;;;;;;;5027645;28;20071;-60
2023/01/04 10:20:18;;;;;;;45.03;41.83;;;;;;;;;;5032456;28;20029;-55
2023/01/04 10:22:50;;;;;;;45.22;42.13;;;;;;;;;;5032405;28;20025;-50
2023/01/04 10:25:31;;;;;;;46.28;42.97;;;;;;;;;;5032779;28;20085;-54
2023/01/04 10:28:02;;;;;;;47.20;43.90;;;;;;;;;;5032074;28;20075;-56
2023/01/04 10:30:28;;;;;;;49.63;46.15;;;;;;;;;;5031461;28;20034;-57
2023/01/04 10:33:07;;;;;;;51.85;48.05;;;;;;;;;;5034849;28;20482;-57
2023/01/04 10:35:34;;;;;;;46.58;43.38;;;;;;;;;;5033253;28;20026;-56
2023/01/04 10:38:03;;;;;;;50.05;46.35;;;;;;;;;;5032174;28;20505;-60
2023/01/04 10:40:31;;;;;;;48.72;45.10;;;;;;;;;;5031522;28;20174;-56
2023/01/04 10:43:29;;;;;;;50.47;46.88;;;;;;;;;;5033862;28;20060;-57
2023/01/04 10:45:59;;;;;;;49.17;45.67;;;;;;;;;;5000267;28;20033;-59
2023/01/04 10:48:45;;;;;;;54.22;50.33;;;;;;;;;;5031811;28;20053;-57
2023/01/04 10:51:13;;;;;;;51.20;47.63;;;;;;;;;;5034043;28;20502;-56
2023/01/04 10:53:46;;;;;;;51.97;48.28;;;;;;;;;;5033154;28;20026;-58
2023/01/04 10:56:31;;;;;;;52.28;48.47;;;;;;;;;;5033996;28;20055;-53
2023/01/04 10:59:05;;;;;;;51.28;47.55;;;;;;;;;;5032646;28;20025;-55
2023/01/04 11:01:37;;;;;;;51.38;47.88;;;;;;;;;;5032868;28;20369;-54
2023/01/04 11:04:03;;;;;;;49.88;46.28;;;;;;;;;;5033062;28;20074;-57
2023/01/04 11:06:48;;;;;;;51.05;47.65;;;;;;;;;;5031927;28;20109;-58
2023/01/04 11:09:29;;;;;;;50.60;47.20;;;;;;;;;;5033808;28;20033;-55
2023/01/04 11:11:56;;;;;;;52.55;49.05;;;;;;;;;;5032620;28;20026;-60
2023/01/04 11:14:24;;;;;;;52.53;49.03;;;;;;;;;;5031981;28;20083;-56
2023/01/04 11:16:51;;;;;;;52.67;49.17;;;;;;;;;;5032434;28;20487;-58
2023/01/04 11:19:17;;;;;;;51.10;47.67;;;;;;;;;;5033913;28;20073;-57
2023/01/04 11:21:48;;;;;;;51.80;48.30;;;;;;;;;;5032782;28;20033;-55
2023/01/04 11:24:14;;;;;;;52.33;48.85;;;;;;;;;;5033356;28;20329;-51
2023/01/04 11:26:42;;;;;;;56.60;52.90;;;;;;;;;;5033798;28;20017;-60
2023/01/04 11:29:23;;;;;;;59.38;55.53;;;;;;;;;;5034113;28;20025;-51
2023/01/04 11:31:52;;;;;;;54.78;51.15;;;;;;;;;;5033853;28;20025;-57
2023/01/04 11:34:18;;;;;;;54.22;50.53;;;;;;;;;;5032399;28;20025;-54
2023/01/04 11:36:46;;;;;;;52.92;49.33;;;;;;;;;;5032977;28;20048;-56
2023/01/04 11:39:25;;;;;;;55.47;51.58;;;;;;;;;;5032655;28;20037;-59
2023/01/04 11:41:56;;;;;;;52.22;48.65;;;;;;;;;;5032923;28;20045;-56
2023/01/04 11:44:22;;;;;;;52.03;48.63;;;;;;;;;;5032109;28;20025;-57
2023/01/04 11:47:04;;;;;;;52.47;48.95;;;;;;;;;;5031347;28;20040;-55
2023/01/04 11:49:34;;;;;;;52.88;49.15;;;;;;;;;;5031591;28;20116;-57
2023/01/04 11:52:00;;;;;;;51.00;47.70;;;;;;;;;;5032946;28;20148;-58
2023/01/04 11:54:26;;;;;;;53.58;50.05;;;;;;;;;;5030933;28;20021;-59
2023/01/04 11:57:20;;;;;;;52.58;48.97;;;;;;;;;;5031453;28;20243;-59
2023/01/04 12:00:06;;;;;;;52.00;48.42;;;;;;;;;;5032356;28;20029;-57
2023/01/04 12:02:32;;;;;;;49.05;45.83;;;;;;;;;;5032671;28;20108;-60
2023/01/04 12:04:58;;;;;;;48.45;45.25;;;;;;;;;;5030451;28;20326;-61
2023/01/04 12:07:31;;;;;;;50.70;47.33;;;;;;;;;;5053473;23;20133;-62
2023/01/04 12:09:58;;;;;;;50.53;47.13;;;;;;;;;;5031303;28;20041;-61
2023/01/04 12:12:28;;;;;;;49.75;46.45;;;;;;;;;;5030878;28;20145;-62
2023/01/04 12:14:55;;;;;;;51.38;48.08;;;;;;;;;;5030309;28;20026;-60
2023/01/04 12:17:41;;;;;;;50.38;47.17;;;;;;;;;;5030976;28;20048;-57
2023/01/04 12:20:16;;;;;;;50.85;47.53;;;;;;;;;;5031493;28;20034;-57
2023/01/04 12:22:42;;;;;;;53.05;49.53;;;;;;;;;;5029816;28;20108;-60
2023/01/04 12:25:29;;;;;;;50.55;47.13;;;;;;;;;;5030626;28;20492;-60
2023/01/04 12:27:55;;;;;;;48.08;44.97;;;;;;;;;;5030785;28;20061;-63
2023/01/04 12:30:40;;;;;;;44.85;41.65;;;;;;;;;;5030900;28;20029;-60
2023/01/04 12:33:25;;;;;;;45.67;42.30;;;;;;;;;;5030168;28;20447;-61
2023/01/04 12:36:02;;;;;;;42.08;39.28;;;;;;;;;;5029899;28;20021;-59
2023/01/04 12:38:47;;;;;;;42.33;39.53;;;;;;;;;;5030416;28;20158;-61
2023/01/04 12:41:13;;;;;;;41.17;38.47;;;;;;;;;;5030953;28;20112;-57
2023/01/04 12:43:39;;;;;;;44.42;41.30;;;;;;;;;;5029741;28;20037;-56
2023/01/04 12:49:27;;;;;;;47.10;43.92;;;;;;;;;;5030518;28;20079;-57
2023/01/04 12:52:05;;;;;;;46.88;43.85;;;;;;;;;;5030369;28;20033;-57
2023/01/04 12:54:43;;;;;;;46.05;43.00;;;;;;;;;;5030195;28;20033;-59
2023/01/04 12:57:15;;;;;;;46.13;43.03;;;;;;;;;;5030795;28;20029;-59
2023/01/04 12:59:54;;;;;;;45.22;42.30;;;;;;;;;;5031007;28;20032;-57
2023/01/04 13:02:21;;;;;;;45.65;42.55;;;;;;;;;;5030861;28;20128;-58
2023/01/04 13:04:48;;;;;;;43.45;40.42;;;;;;;;;;5030174;28;20120;-56
2023/01/04 13:07:20;;;;;;;44.35;41.45;;;;;;;;;;5030585;28;20079;-63
2023/01/04 13:09:51;;;;;;;45.17;42.17;;;;;;;;;;5029715;28;20026;-60
2023/01/04 13:12:23;;;;;;;44.55;41.45;;;;;;;;;;5030816;28;20116;-62
2023/01/04 13:14:51;;;;;;;42.75;40.05;;;;;;;;;;5028635;28;20018;-62
2023/01/04 13:17:19;;;;;;;42.83;39.92;;;;;;;;;;5030703;28;20091;-63
2023/01/04 13:19:45;;;;;;;42.22;39.45;;;;;;;;;;5031350;28;20053;-63
2023/01/04 13:22:17;;;;;;;44.42;41.58;;;;;;;;;;5030860;28;20025;-61
2023/01/04 13:24:44;;;;;;;48.88;45.30;;;;;;;;;;5029847;28;20037;-63
2023/01/04 13:27:15;;;;;;;48.30;45.05;;;;;;;;;;5030449;28;20030;-60
2023/01/04 13:29:41;;;;;;;49.63;46.33;;;;;;;;;;5030599;28;20056;-60
2023/01/04 13:32:12;;;;;;;47.33;44.10;;;;;;;;;;5030393;28;20043;-62
2023/01/04 13:34:39;;;;;;;46.72;43.70;;;;;;;;;;5029724;28;20032;-59
2023/01/04 13:37:15;;;;;;;47.08;43.97;;;;;;;;;;5030453;28;20478;-60
2023/01/04 13:39:41;;;;;;;49.55;46.35;;;;;;;;;;5030573;28;20022;-60
2023/01/04 13:42:15;;;;;;;46.42;43.33;;;;;;;;;;5031568;28;20397;-60
2023/01/04 13:44:41;;;;;;;45.45;42.25;;;;;;;;;;5030012;28;20022;-59
2023/01/04 13:47:08;;;;;;;41.53;38.72;;;;;;;;;;5029145;28;20037;-60
2023/01/04 13:49:38;;;;;;;38.85;36.15;;;;;;;;;;5030521;28;20072;-61
2023/01/04 13:52:19;;;;;;;37.70;35.00;;;;;;;;;;5030674;28;20110;-61
2023/01/04 13:54:45;;;;;;;33.67;31.17;;;;;;;;;;5029653;28;20461;-58
2023/01/04 13:57:19;;;;;;;32.47;30.05;;;;;;;;;;5030397;28;20025;-58
2023/01/04 13:59:45;;;;;;;31.73;29.13;;;;;;;;;;5030838;28;20025;-61
2023/01/04 14:02:19;;;;;;;31.17;28.77;;;;;;;;;;5030526;28;20028;-61
2023/01/04 14:04:46;;;;;;;29.17;26.88;;;;;;;;;;5028640;28;20025;-62
2023/01/04 14:07:13;;;;;;;28.67;26.38;;;;;;;;;;5030252;28;20033;-60
2023/01/04 14:09:44;;;;;;;28.80;26.50;;;;;;;;;;5030121;28;20109;-62
2023/01/04 14:12:15;;;;;;;28.02;25.67;;;;;;;;;;5029314;28;20553;-59
2023/01/04 14:14:57;;;;;;;28.45;26.10;;;;;;;;;;5029600;28;20031;-62
2023/01/04 14:17:29;;;;;;;27.65;25.45;;;;;;;;;;5029249;28;20348;-60
2023/01/04 14:19:57;;;;;;;27.98;25.58;;;;;;;;;;5030450;28;20405;-63
2023/01/04 14:22:23;;;;;;;27.20;24.70;;;;;;;;;;5033097;28;20026;-63
2023/01/04 14:24:50;;;;;;;26.13;23.83;;;;;;;;;;5033707;28;20029;-60
2023/01/04 14:27:34;;;;;;;24.10;22.10;;;;;;;;;;5033677;28;20156;-63
2023/01/04 14:30:01;;;;;;;21.75;19.60;;;;;;;;;;5033701;28;20029;-63
2023/01/04 14:32:27;;;;;;;19.10;17.20;;;;;;;;;;5033475;28;20041;-62
2023/01/04 14:34:53;;;;;;;17.23;15.10;;;;;;;;;;5031440;28;20036;-62
2023/01/04 14:37:19;;;;;;;16.67;13.95;;;;;;;;;;5033533;28;20041;-61
2023/01/04 14:39:45;;;;;;;16.60;12.93;;;;;;;;;;5032417;28;20101;-62
2023/01/04 14:42:25;;;;;;;17.38;13.60;;;;;;;;;;5033885;28;20064;-60
2023/01/04 14:44:51;;;;;;;18.02;12.48;;;;;;;;;;5033061;28;20025;-62
2023/01/04 14:47:18;;;;;;;16.35;12.07;;;;;;;;;;5032389;28;20040;-61
2023/01/04 14:49:44;;;;;;;16.83;11.98;;;;;;;;;;5033479;28;20034;-63
2023/01/04 14:52:11;;;;;;;15.90;11.85;;;;;;;;;;5033338;28;20378;-64
2023/01/04 14:54:38;;;;;;;16.60;11.93;;;;;;;;;;5032699;28;20481;-63
2023/01/04 14:57:04;;;;;;;15.02;11.57;;;;;;;;;;5032981;28;20025;-60
2023/01/04 14:59:30;;;;;;;16.50;11.48;;;;;;;;;;5032882;28;20025;-62
2023/01/04 15:01:57;;;;;;;16.10;11.40;;;;;;;;;;5031593;28;20073;-64
2023/01/04 15:04:24;;;;;;;15.98;11.35;;;;;;;;;;5032438;28;20108;-64
2023/01/04 15:06:52;;;;;;;15.10;11.18;;;;;;;;;;5033036;28;20552;-66
2023/01/04 15:09:18;;;;;;;15.77;11.38;;;;;;;;;;5033183;28;20048;-64
2023/01/04 15:11:44;;;;;;;16.08;11.25;;;;;;;;;;5033324;28;20434;-65
2023/01/04 15:14:11;;;;;;;15.63;11.43;;;;;;;;;;5032245;28;20053;-65
2023/01/04 15:16:37;;;;;;;15.35;11.35;;;;;;;;;;5032475;28;20568;-64
2023/01/04 15:19:03;;;;;;;14.90;11.32;;;;;;;;;;5032161;28;20152;-63
2023/01/04 15:21:29;;;;;;;15.23;11.82;;;;;;;;;;5032899;28;20384;-63
2023/01/04 15:23:56;;;;;;;16.13;11.65;;;;;;;;;;5030857;28;20053;-64